sensor_id;sensor_type;location;lat;lon;timestamp;temperature;humidity
7934;DHT22;4012;48.896;9.192;2023-10-09T00:01:06;15.10;99.90
7934;DHT22;4012;48.896;9.192;2023-10-09T00:03:46;15.20;99.90
7934;DHT22;4012;48.896;9.192;2023-10-09T00:06:15;15.20;99.90
7934;DHT22;4012;48.896;9.192;2023-10-09T00:08:42;15.20;99.90
7934;DHT22;4012;48.896;9.192;2023-10-09T00:11:13;15.10;99.90
7934;DHT22;4012;48.896;9.192;2023-10-09T00:13:46;15.10;99.90
7934;DHT22;4012;48.896;9.192;2023-10-09T00:16:17;15.10;99.90
7934;DHT22;4012;48.896;9.192;2023-10-09T00:19:01;15.10;99.90
7934;DHT22;4012;48.896;9.192;2023-10-09T00:21:48;15.10;99.90
7934;DHT22;4012;48.896;9.192;2023-10-09T00:24:15;15.00;99.90
7934;DHT22;4012;48.896;9.192;2023-10-09T00:26:50;15.00;99.90
7934;DHT22;4012;48.896;9.192;2023-10-09T00:29:17;15.00;99.90
7934;DHT22;4012;48.896;9.192;2023-10-09T00:31:52;15.00;99.90
7934;DHT22;4012;48.896;9.192;2023-10-09T00:34:28;15.00;99.90
7934;DHT22;4012;48.896;9.192;2023-10-09T00:36:54;15.00;99.90
7934;DHT22;4012;48.896;9.192;2023-10-09T00:39:21;15.00;99.90
7934;DHT22;4012;48.896;9.192;2023-10-09T00:42:07;15.00;99.90
7934;DHT22;4012;48.896;9.192;2023-10-09T00:44:33;15.00;99.90
7934;DHT22;4012;48.896;9.192;2023-10-09T00:47:12;15.00;99.90
7934;DHT22;4012;48.896;9.192;2023-10-09T00:49:52;15.00;99.90
7934;DHT22;4012;48.896;9.192;2023-10-09T00:52:38;14.90;99.90
7934;DHT22;4012;48.896;9.192;2023-10-09T00:55:18;14.90;99.90
7934;DHT22;4012;48.896;9.192;2023-10-09T00:57:53;14.90;99.90
7934;DHT22;4012;48.896;9.192;2023-10-09T01:00:26;15.00;99.90
7934;DHT22;4012;48.896;9.192;2023-10-09T01:03:02;14.90;99.90
7934;DHT22;4012;48.896;9.192;2023-10-09T01:05:53;14.90;99.90
7934;DHT22;4012;48.896;9.192;2023-10-09T01:08:29;14.90;99.90
7934;DHT22;4012;48.896;9.192;2023-10-09T01:11:16;14.90;99.90
7934;DHT22;4012;48.896;9.192;2023-10-09T01:13:55;14.90;99.90
7934;DHT22;4012;48.896;9.192;2023-10-09T01:16:25;15.00;99.90
7934;DHT22;4012;48.896;9.192;2023-10-09T01:18:53;15.00;99.90
7934;DHT22;4012;48.896;9.192;2023-10-09T01:21:22;15.00;99.90
7934;DHT22;4012;48.896;9.192;2023-10-09T01:23:53;15.00;99.90
7934;DHT22;4012;48.896;9.192;2023-10-09T01:26:31;15.00;99.90
7934;DHT22;4012;48.896;9.192;2023-10-09T01:29:00;15.00;99.90
7934;DHT22;4012;48.896;9.192;2023-10-09T01:31:26;14.90;99.90
7934;DHT22;4012;48.896;9.192;2023-10-09T01:33:53;14.90;99.90
7934;DHT22;4012;48.896;9.192;2023-10-09T01:36:19;14.90;99.90
7934;DHT22;4012;48.896;9.192;2023-10-09T01:39:00;14.90;99.90
7934;DHT22;4012;48.896;9.192;2023-10-09T01:41:47;14.80;99.90
7934;DHT22;4012;48.896;9.192;2023-10-09T01:44:13;14.80;99.90
7934;DHT22;4012;48.896;9.192;2023-10-09T01:46:42;14.80;99.90
7934;DHT22;4012;48.896;9.192;2023-10-09T01:49:08;14.80;99.90
7934;DHT22;4012;48.896;9.192;2023-10-09T01:51:43;14.80;99.90
7934;DHT22;4012;48.896;9.192;2023-10-09T01:54:08;14.80;99.90
7934;DHT22;4012;48.896;9.192;2023-10-09T01:56:41;14.80;99.90
7934;DHT22;4012;48.896;9.192;2023-10-09T01:59:11;14.90;99.90
7934;DHT22;4012;48.896;9.192;2023-10-09T02:01:37;14.90;99.90
7934;DHT22;4012;48.896;9.192;2023-10-09T02:04:13;14.90;99.90
7934;DHT22;4012;48.896;9.192;2023-10-09T02:06:39;14.90;99.90
7934;DHT22;4012;48.896;9.192;2023-10-09T02:09:05;15.00;99.90
7934;DHT22;4012;48.896;9.192;2023-10-09T02:11:32;14.90;99.90
7934;DHT22;4012;48.896;9.192;2023-10-09T02:14:07;14.90;99.90
7934;DHT22;4012;48.896;9.192;2023-10-09T02:16:45;14.90;99.90
7934;DHT22;4012;48.896;9.192;2023-10-09T02:19:28;14.90;99.90
7934;DHT22;4012;48.896;9.192;2023-10-09T02:22:05;14.90;99.90
7934;DHT22;4012;48.896;9.192;2023-10-09T02:24:42;15.00;99.90
7934;DHT22;4012;48.896;9.192;2023-10-09T02:27:16;15.00;99.90
7934;DHT22;4012;48.896;9.192;2023-10-09T02:30:00;14.90;99.90
7934;DHT22;4012;48.896;9.192;2023-10-09T02:32:34;15.00;99.90
7934;DHT22;4012;48.896;9.192;2023-10-09T02:35:01;15.00;99.90
7934;DHT22;4012;48.896;9.192;2023-10-09T02:37:36;15.00;99.90
7934;DHT22;4012;48.896;9.192;2023-10-09T02:40:04;14.90;99.90
7934;DHT22;4012;48.896;9.192;2023-10-09T02:42:34;14.90;99.90
7934;DHT22;4012;48.896;9.192;2023-10-09T02:45:00;14.90;99.90
7934;DHT22;4012;48.896;9.192;2023-10-09T02:47:26;15.00;99.90
7934;DHT22;4012;48.896;9.192;2023-10-09T02:49:56;15.00;99.90
7934;DHT22;4012;48.896;9.192;2023-10-09T02:52:26;15.00;99.90
7934;DHT22;4012;48.896;9.192;2023-10-09T02:54:58;15.00;99.90
7934;DHT22;4012;48.896;9.192;2023-10-09T02:57:32;15.00;99.90
7934;DHT22;4012;48.896;9.192;2023-10-09T03:00:07;15.00;99.90
7934;DHT22;4012;48.896;9.192;2023-10-09T03:02:45;15.00;99.90
7934;DHT22;4012;48.896;9.192;2023-10-09T03:05:14;15.00;99.90
7934;DHT22;4012;48.896;9.192;2023-10-09T03:07:40;15.00;99.90
7934;DHT22;4012;48.896;9.192;2023-10-09T03:10:07;15.00;99.90
7934;DHT22;4012;48.896;9.192;2023-10-09T03:12:35;15.10;99.90
7934;DHT22;4012;48.896;9.192;2023-10-09T03:15:01;15.00;99.90
7934;DHT22;4012;48.896;9.192;2023-10-09T03:17:28;15.00;99.90
7934;DHT22;4012;48.896;9.192;2023-10-09T03:19:53;15.00;99.90
7934;DHT22;4012;48.896;9.192;2023-10-09T03:22:23;14.90;99.90
7934;DHT22;4012;48.896;9.192;2023-10-09T03:24:48;14.90;99.90
7934;DHT22;4012;48.896;9.192;2023-10-09T03:27:27;14.90;99.90
7934;DHT22;4012;48.896;9.192;2023-10-09T03:29:53;14.90;99.90
7934;DHT22;4012;48.896;9.192;2023-10-09T03:32:19;14.90;99.90
7934;DHT22;4012;48.896;9.192;2023-10-09T03:34:45;14.90;99.90
7934;DHT22;4012;48.896;9.192;2023-10-09T03:37:11;14.90;99.90
7934;DHT22;4012;48.896;9.192;2023-10-09T03:39:59;14.90;99.90
7934;DHT22;4012;48.896;9.192;2023-10-09T03:42:24;14.90;99.90
7934;DHT22;4012;48.896;9.192;2023-10-09T03:44:50;14.90;99.90
7934;DHT22;4012;48.896;9.192;2023-10-09T03:47:19;15.00;99.90
7934;DHT22;4012;48.896;9.192;2023-10-09T03:49:51;14.90;99.90
7934;DHT22;4012;48.896;9.192;2023-10-09T03:52:18;14.90;99.90
7934;DHT22;4012;48.896;9.192;2023-10-09T03:54:45;15.00;99.90
7934;DHT22;4012;48.896;9.192;2023-10-09T03:57:14;15.00;99.90
7934;DHT22;4012;48.896;9.192;2023-10-09T03:59:47;15.00;99.90
7934;DHT22;4012;48.896;9.192;2023-10-09T04:02:14;15.00;99.90
7934;DHT22;4012;48.896;9.192;2023-10-09T04:04:40;15.00;99.90
7934;DHT22;4012;48.896;9.192;2023-10-09T04:07:12;15.00;99.90
7934;DHT22;4012;48.896;9.192;2023-10-09T04:09:38;15.00;99.90
7934;DHT22;4012;48.896;9.192;2023-10-09T04:12:10;15.00;99.90
7934;DHT22;4012;48.896;9.192;2023-10-09T04:14:36;15.00;99.90
7934;DHT22;4012;48.896;9.192;2023-10-09T04:17:09;14.90;99.90
7934;DHT22;4012;48.896;9.192;2023-10-09T04:19:55;14.90;99.90
7934;DHT22;4012;48.896;9.192;2023-10-09T04:22:40;14.90;99.90
7934;DHT22;4012;48.896;9.192;2023-10-09T04:25:24;14.90;99.90
7934;DHT22;4012;48.896;9.192;2023-10-09T04:27:58;14.90;99.90
7934;DHT22;4012;48.896;9.192;2023-10-09T04:30:45;14.90;99.90
7934;DHT22;4012;48.896;9.192;2023-10-09T04:33:19;14.90;99.90
7934;DHT22;4012;48.896;9.192;2023-10-09T04:36:05;14.90;99.90
7934;DHT22;4012;48.896;9.192;2023-10-09T04:38:51;14.90;99.90
7934;DHT22;4012;48.896;9.192;2023-10-09T04:41:30;14.90;99.90
7934;DHT22;4012;48.896;9.192;2023-10-09T04:44:17;14.90;99.90
7934;DHT22;4012;48.896;9.192;2023-10-09T04:46:49;14.90;99.90
7934;DHT22;4012;48.896;9.192;2023-10-09T04:49:34;14.90;99.90
7934;DHT22;4012;48.896;9.192;2023-10-09T04:52:16;14.90;99.90
7934;DHT22;4012;48.896;9.192;2023-10-09T04:54:51;14.90;99.90
7934;DHT22;4012;48.896;9.192;2023-10-09T04:57:35;14.80;99.90
7934;DHT22;4012;48.896;9.192;2023-10-09T05:00:15;14.90;99.90
7934;DHT22;4012;48.896;9.192;2023-10-09T05:03:00;14.80;99.90
7934;DHT22;4012;48.896;9.192;2023-10-09T05:05:50;14.80;99.90
7934;DHT22;4012;48.896;9.192;2023-10-09T05:08:24;14.90;99.90
7934;DHT22;4012;48.896;9.192;2023-10-09T05:11:00;14.90;99.90
7934;DHT22;4012;48.896;9.192;2023-10-09T05:18:33;14.90;99.90
7934;DHT22;4012;48.896;9.192;2023-10-09T05:21:04;14.80;99.90
7934;DHT22;4012;48.896;9.192;2023-10-09T05:23:39;14.80;99.90
7934;DHT22;4012;48.896;9.192;2023-10-09T05:26:34;14.80;99.90
7934;DHT22;4012;48.896;9.192;2023-10-09T05:29:24;14.80;99.90
7934;DHT22;4012;48.896;9.192;2023-10-09T05:32:06;14.80;99.90
7934;DHT22;4012;48.896;9.192;2023-10-09T05:34:37;14.80;99.90
7934;DHT22;4012;48.896;9.192;2023-10-09T05:37:31;14.80;99.90
7934;DHT22;4012;48.896;9.192;2023-10-09T05:40:01;14.80;99.90
7934;DHT22;4012;48.896;9.192;2023-10-09T05:42:35;14.80;99.90
7934;DHT22;4012;48.896;9.192;2023-10-09T05:45:04;14.80;99.90
7934;DHT22;4012;48.896;9.192;2023-10-09T05:47:36;14.90;99.90
7934;DHT22;4012;48.896;9.192;2023-10-09T05:50:03;14.90;99.90
7934;DHT22;4012;48.896;9.192;2023-10-09T05:52:35;14.90;99.90
7934;DHT22;4012;48.896;9.192;2023-10-09T05:55:04;14.90;99.90
7934;DHT22;4012;48.896;9.192;2023-10-09T05:57:48;14.90;99.90
7934;DHT22;4012;48.896;9.192;2023-10-09T06:00:33;14.90;99.90
7934;DHT22;4012;48.896;9.192;2023-10-09T06:03:17;15.00;99.90
7934;DHT22;4012;48.896;9.192;2023-10-09T06:08:24;15.00;99.90
7934;DHT22;4012;48.896;9.192;2023-10-09T06:11:03;15.10;99.90
7934;DHT22;4012;48.896;9.192;2023-10-09T06:13:53;15.20;99.90
7934;DHT22;4012;48.896;9.192;2023-10-09T06:16:32;15.20;99.90
7934;DHT22;4012;48.896;9.192;2023-10-09T06:19:17;15.30;99.90
7934;DHT22;4012;48.896;9.192;2023-10-09T06:21:49;15.30;99.90
7934;DHT22;4012;48.896;9.192;2023-10-09T06:24:24;15.30;99.90
7934;DHT22;4012;48.896;9.192;2023-10-09T06:26:51;15.40;99.90
7934;DHT22;4012;48.896;9.192;2023-10-09T06:29:29;15.40;99.90
7934;DHT22;4012;48.896;9.192;2023-10-09T06:32:06;15.50;99.90
7934;DHT22;4012;48.896;9.192;2023-10-09T06:34:47;15.50;99.90
7934;DHT22;4012;48.896;9.192;2023-10-09T06:37:25;15.60;99.90
7934;DHT22;4012;48.896;9.192;2023-10-09T06:39:55;15.70;99.90
7934;DHT22;4012;48.896;9.192;2023-10-09T06:42:27;15.70;99.90
7934;DHT22;4012;48.896;9.192;2023-10-09T06:45:16;15.70;99.90
7934;DHT22;4012;48.896;9.192;2023-10-09T06:47:49;15.80;99.90
7934;DHT22;4012;48.896;9.192;2023-10-09T06:50:22;15.80;99.90
7934;DHT22;4012;48.896;9.192;2023-10-09T06:52:48;15.90;99.90
7934;DHT22;4012;48.896;9.192;2023-10-09T06:55:27;15.90;99.90
7934;DHT22;4012;48.896;9.192;2023-10-09T06:58:01;15.90;99.90
7934;DHT22;4012;48.896;9.192;2023-10-09T07:00:38;15.90;99.90
7934;DHT22;4012;48.896;9.192;2023-10-09T07:03:20;15.90;99.90
7934;DHT22;4012;48.896;9.192;2023-10-09T07:06:05;15.90;99.90
7934;DHT22;4012;48.896;9.192;2023-10-09T07:08:36;16.00;99.90
7934;DHT22;4012;48.896;9.192;2023-10-09T07:11:23;16.10;99.90
7934;DHT22;4012;48.896;9.192;2023-10-09T07:16:33;16.20;99.90
7934;DHT22;4012;48.896;9.192;2023-10-09T07:19:05;16.30;99.90
7934;DHT22;4012;48.896;9.192;2023-10-09T07:21:49;16.40;99.90
7934;DHT22;4012;48.896;9.192;2023-10-09T07:24:20;16.50;99.90
7934;DHT22;4012;48.896;9.192;2023-10-09T07:26:50;16.50;99.90
7934;DHT22;4012;48.896;9.192;2023-10-09T07:29:20;16.70;99.90
7934;DHT22;4012;48.896;9.192;2023-10-09T07:31:49;16.70;99.90
7934;DHT22;4012;48.896;9.192;2023-10-09T07:34:23;16.80;99.90
7934;DHT22;4012;48.896;9.192;2023-10-09T07:36:56;16.70;99.90
7934;DHT22;4012;48.896;9.192;2023-10-09T07:39:22;16.70;99.90
7934;DHT22;4012;48.896;9.192;2023-10-09T07:41:48;16.80;99.90
7934;DHT22;4012;48.896;9.192;2023-10-09T07:44:41;16.80;99.90
7934;DHT22;4012;48.896;9.192;2023-10-09T07:47:12;16.80;99.90
7934;DHT22;4012;48.896;9.192;2023-10-09T07:49:45;16.90;99.90
7934;DHT22;4012;48.896;9.192;2023-10-09T07:52:17;17.00;99.90
7934;DHT22;4012;48.896;9.192;2023-10-09T07:54:43;17.10;99.90
7934;DHT22;4012;48.896;9.192;2023-10-09T07:57:16;17.10;99.90
7934;DHT22;4012;48.896;9.192;2023-10-09T07:59:43;17.10;99.90
7934;DHT22;4012;48.896;9.192;2023-10-09T08:02:23;17.20;99.90
7934;DHT22;4012;48.896;9.192;2023-10-09T08:04:59;17.30;99.90
7934;DHT22;4012;48.896;9.192;2023-10-09T08:07:45;17.40;99.90
7934;DHT22;4012;48.896;9.192;2023-10-09T08:10:22;17.40;99.90
7934;DHT22;4012;48.896;9.192;2023-10-09T08:12:48;17.50;99.90
7934;DHT22;4012;48.896;9.192;2023-10-09T08:15:17;17.50;99.90
7934;DHT22;4012;48.896;9.192;2023-10-09T08:17:55;17.70;99.90
7934;DHT22;4012;48.896;9.192;2023-10-09T08:20:39;17.70;99.90
7934;DHT22;4012;48.896;9.192;2023-10-09T08:23:36;17.70;99.90
7934;DHT22;4012;48.896;9.192;2023-10-09T08:26:16;18.00;99.90
7934;DHT22;4012;48.896;9.192;2023-10-09T08:28:54;18.10;99.90
7934;DHT22;4012;48.896;9.192;2023-10-09T08:31:40;18.30;99.90
7934;DHT22;4012;48.896;9.192;2023-10-09T08:34:14;18.30;99.90
7934;DHT22;4012;48.896;9.192;2023-10-09T08:36:50;18.30;99.90
7934;DHT22;4012;48.896;9.192;2023-10-09T08:39:20;18.40;99.90
7934;DHT22;4012;48.896;9.192;2023-10-09T08:41:53;18.50;99.90
7934;DHT22;4012;48.896;9.192;2023-10-09T08:44:23;18.60;99.90
7934;DHT22;4012;48.896;9.192;2023-10-09T08:46:50;18.50;99.90
7934;DHT22;4012;48.896;9.192;2023-10-09T08:49:17;18.40;99.90
7934;DHT22;4012;48.896;9.192;2023-10-09T08:51:44;18.40;99.90
7934;DHT22;4012;48.896;9.192;2023-10-09T08:54:11;18.60;99.90
7934;DHT22;4012;48.896;9.192;2023-10-09T08:56:40;18.70;99.90
7934;DHT22;4012;48.896;9.192;2023-10-09T08:59:15;18.70;99.90
7934;DHT22;4012;48.896;9.192;2023-10-09T09:01:47;18.60;99.90
7934;DHT22;4012;48.896;9.192;2023-10-09T09:04:39;18.20;99.90
7934;DHT22;4012;48.896;9.192;2023-10-09T09:07:06;18.00;99.90
7934;DHT22;4012;48.896;9.192;2023-10-09T09:09:34;18.00;99.90
7934;DHT22;4012;48.896;9.192;2023-10-09T09:12:00;18.00;99.90
7934;DHT22;4012;48.896;9.192;2023-10-09T09:14:36;18.00;99.90
7934;DHT22;4012;48.896;9.192;2023-10-09T09:17:03;18.00;99.90
7934;DHT22;4012;48.896;9.192;2023-10-09T09:19:31;17.90;99.90
7934;DHT22;4012;48.896;9.192;2023-10-09T09:21:58;17.90;99.90
7934;DHT22;4012;48.896;9.192;2023-10-09T09:24:57;18.00;99.90
7934;DHT22;4012;48.896;9.192;2023-10-09T09:31:10;19.00;99.90
7934;DHT22;4012;48.896;9.192;2023-10-09T09:33:39;19.40;99.90
7934;DHT22;4012;48.896;9.192;2023-10-09T09:36:13;19.70;99.90
7934;DHT22;4012;48.896;9.192;2023-10-09T09:38:39;20.00;99.90
7934;DHT22;4012;48.896;9.192;2023-10-09T09:41:08;20.30;99.90
7934;DHT22;4012;48.896;9.192;2023-10-09T09:43:36;20.60;99.90
7934;DHT22;4012;48.896;9.192;2023-10-09T09:46:07;20.90;99.90
7934;DHT22;4012;48.896;9.192;2023-10-09T09:48:42;21.30;99.90
7934;DHT22;4012;48.896;9.192;2023-10-09T09:51:13;21.50;99.90
7934;DHT22;4012;48.896;9.192;2023-10-09T09:53:43;21.80;99.90
7934;DHT22;4012;48.896;9.192;2023-10-09T09:56:14;22.10;99.90
7934;DHT22;4012;48.896;9.192;2023-10-09T09:58:46;22.30;99.90
7934;DHT22;4012;48.896;9.192;2023-10-09T10:01:19;22.40;99.90
7934;DHT22;4012;48.896;9.192;2023-10-09T10:04:00;22.50;99.90
7934;DHT22;4012;48.896;9.192;2023-10-09T10:06:29;22.60;99.90
7934;DHT22;4012;48.896;9.192;2023-10-09T10:08:57;22.60;99.90
7934;DHT22;4012;48.896;9.192;2023-10-09T10:11:42;22.50;99.90
7934;DHT22;4012;48.896;9.192;2023-10-09T10:14:10;22.50;99.90
7934;DHT22;4012;48.896;9.192;2023-10-09T10:22:47;22.30;99.90
7934;DHT22;4012;48.896;9.192;2023-10-09T10:28:22;22.00;99.90
7934;DHT22;4012;48.896;9.192;2023-10-09T10:31:08;22.10;99.90
7934;DHT22;4012;48.896;9.192;2023-10-09T10:36:21;22.40;99.90
7934;DHT22;4012;48.896;9.192;2023-10-09T10:39:03;22.50;99.90
7934;DHT22;4012;48.896;9.192;2023-10-09T10:41:30;22.20;99.90
7934;DHT22;4012;48.896;9.192;2023-10-09T10:44:01;22.20;99.90
7934;DHT22;4012;48.896;9.192;2023-10-09T10:46:47;22.40;99.90
7934;DHT22;4012;48.896;9.192;2023-10-09T10:49:19;22.50;99.90
7934;DHT22;4012;48.896;9.192;2023-10-09T10:51:49;22.60;99.90
7934;DHT22;4012;48.896;9.192;2023-10-09T10:54:26;22.50;99.90
7934;DHT22;4012;48.896;9.192;2023-10-09T10:56:58;22.30;99.90
7934;DHT22;4012;48.896;9.192;2023-10-09T10:59:29;22.40;99.90
7934;DHT22;4012;48.896;9.192;2023-10-09T11:01:59;22.40;99.90
7934;DHT22;4012;48.896;9.192;2023-10-09T11:04:28;22.50;99.90
7934;DHT22;4012;48.896;9.192;2023-10-09T11:07:01;22.80;99.90
7934;DHT22;4012;48.896;9.192;2023-10-09T11:09:56;22.90;99.90
7934;DHT22;4012;48.896;9.192;2023-10-09T11:12:50;22.90;99.90
7934;DHT22;4012;48.896;9.192;2023-10-09T11:15:31;23.10;99.90
7934;DHT22;4012;48.896;9.192;2023-10-09T11:18:10;23.30;99.90
7934;DHT22;4012;48.896;9.192;2023-10-09T11:20:53;23.50;99.90
7934;DHT22;4012;48.896;9.192;2023-10-09T11:23:42;23.40;99.90
7934;DHT22;4012;48.896;9.192;2023-10-09T11:26:17;23.30;99.90
7934;DHT22;4012;48.896;9.192;2023-10-09T11:29:04;23.30;99.90
7934;DHT22;4012;48.896;9.192;2023-10-09T11:31:39;23.20;99.90
7934;DHT22;4012;48.896;9.192;2023-10-09T11:34:18;23.00;99.90
7934;DHT22;4012;48.896;9.192;2023-10-09T11:36:58;22.80;99.90
7934;DHT22;4012;48.896;9.192;2023-10-09T11:39:32;22.70;99.90
7934;DHT22;4012;48.896;9.192;2023-10-09T11:42:07;22.60;99.90
7934;DHT22;4012;48.896;9.192;2023-10-09T11:44:40;22.60;99.90
7934;DHT22;4012;48.896;9.192;2023-10-09T11:47:09;22.60;99.90
7934;DHT22;4012;48.896;9.192;2023-10-09T11:50:02;22.70;99.90
7934;DHT22;4012;48.896;9.192;2023-10-09T11:52:28;22.80;99.90
7934;DHT22;4012;48.896;9.192;2023-10-09T11:55:00;22.70;99.90
7934;DHT22;4012;48.896;9.192;2023-10-09T11:57:26;22.90;99.90
7934;DHT22;4012;48.896;9.192;2023-10-09T11:59:57;23.00;99.90
7934;DHT22;4012;48.896;9.192;2023-10-09T12:02:23;23.00;99.90
7934;DHT22;4012;48.896;9.192;2023-10-09T12:04:49;22.90;99.90
7934;DHT22;4012;48.896;9.192;2023-10-09T12:07:15;22.80;99.90
7934;DHT22;4012;48.896;9.192;2023-10-09T12:09:40;22.60;99.90
7934;DHT22;4012;48.896;9.192;2023-10-09T12:12:07;22.70;99.90
7934;DHT22;4012;48.896;9.192;2023-10-09T12:14:36;22.70;99.90
7934;DHT22;4012;48.896;9.192;2023-10-09T12:17:04;22.70;99.90
7934;DHT22;4012;48.896;9.192;2023-10-09T12:19:37;22.80;99.90
7934;DHT22;4012;48.896;9.192;2023-10-09T12:22:06;22.90;99.90
7934;DHT22;4012;48.896;9.192;2023-10-09T12:24:33;22.90;99.90
7934;DHT22;4012;48.896;9.192;2023-10-09T12:26:59;23.10;99.90
7934;DHT22;4012;48.896;9.192;2023-10-09T12:29:26;23.40;99.90
7934;DHT22;4012;48.896;9.192;2023-10-09T12:31:58;23.80;99.90
7934;DHT22;4012;48.896;9.192;2023-10-09T12:34:25;23.90;99.90
7934;DHT22;4012;48.896;9.192;2023-10-09T12:36:57;23.90;99.90
7934;DHT22;4012;48.896;9.192;2023-10-09T12:39:26;23.70;99.90
7934;DHT22;4012;48.896;9.192;2023-10-09T12:41:58;23.70;99.90
7934;DHT22;4012;48.896;9.192;2023-10-09T12:44:32;23.60;99.90
7934;DHT22;4012;48.896;9.192;2023-10-09T12:47:05;23.70;99.90
7934;DHT22;4012;48.896;9.192;2023-10-09T12:49:30;23.70;99.90
7934;DHT22;4012;48.896;9.192;2023-10-09T12:51:56;23.60;99.90
7934;DHT22;4012;48.896;9.192;2023-10-09T12:54:24;23.50;99.90
7934;DHT22;4012;48.896;9.192;2023-10-09T12:56:55;23.50;99.90
7934;DHT22;4012;48.896;9.192;2023-10-09T12:59:21;23.50;99.90
7934;DHT22;4012;48.896;9.192;2023-10-09T13:01:55;23.40;99.90
7934;DHT22;4012;48.896;9.192;2023-10-09T13:04:24;23.50;99.90
7934;DHT22;4012;48.896;9.192;2023-10-09T13:06:57;23.70;99.90
7934;DHT22;4012;48.896;9.192;2023-10-09T13:09:27;24.10;99.90
7934;DHT22;4012;48.896;9.192;2023-10-09T13:12:09;24.40;99.90
7934;DHT22;4012;48.896;9.192;2023-10-09T13:14:37;24.70;99.90
7934;DHT22;4012;48.896;9.192;2023-10-09T13:17:03;24.80;99.90
7934;DHT22;4012;48.896;9.192;2023-10-09T13:19:35;24.80;99.90
7934;DHT22;4012;48.896;9.192;2023-10-09T13:22:01;24.90;99.90
7934;DHT22;4012;48.896;9.192;2023-10-09T13:24:29;24.60;99.90
7934;DHT22;4012;48.896;9.192;2023-10-09T13:26:56;24.50;99.90
7934;DHT22;4012;48.896;9.192;2023-10-09T13:29:24;24.50;99.90
7934;DHT22;4012;48.896;9.192;2023-10-09T13:31:50;24.50;99.90
7934;DHT22;4012;48.896;9.192;2023-10-09T13:34:18;24.60;99.90
7934;DHT22;4012;48.896;9.192;2023-10-09T13:36:44;24.60;99.90
7934;DHT22;4012;48.896;9.192;2023-10-09T13:39:19;24.50;99.90
7934;DHT22;4012;48.896;9.192;2023-10-09T13:41:49;24.50;99.90
7934;DHT22;4012;48.896;9.192;2023-10-09T13:44:15;24.50;99.90
7934;DHT22;4012;48.896;9.192;2023-10-09T13:46:41;24.60;99.90
7934;DHT22;4012;48.896;9.192;2023-10-09T13:49:10;24.60;99.90
7934;DHT22;4012;48.896;9.192;2023-10-09T13:51:43;24.70;99.90
7934;DHT22;4012;48.896;9.192;2023-10-09T13:54:12;24.90;99.90
7934;DHT22;4012;48.896;9.192;2023-10-09T13:56:48;24.90;99.90
7934;DHT22;4012;48.896;9.192;2023-10-09T13:59:21;25.00;99.90
7934;DHT22;4012;48.896;9.192;2023-10-09T14:01:56;25.10;99.90
7934;DHT22;4012;48.896;9.192;2023-10-09T14:04:25;25.00;99.90
7934;DHT22;4012;48.896;9.192;2023-10-09T14:06:54;24.90;99.90
7934;DHT22;4012;48.896;9.192;2023-10-09T14:09:24;24.70;99.90
7934;DHT22;4012;48.896;9.192;2023-10-09T14:12:19;24.60;99.90
7934;DHT22;4012;48.896;9.192;2023-10-09T14:14:47;24.50;99.90
7934;DHT22;4012;48.896;9.192;2023-10-09T14:17:13;24.40;99.90
7934;DHT22;4012;48.896;9.192;2023-10-09T14:19:40;24.40;99.90
7934;DHT22;4012;48.896;9.192;2023-10-09T14:22:16;24.30;99.90
7934;DHT22;4012;48.896;9.192;2023-10-09T14:24:46;24.20;99.90
7934;DHT22;4012;48.896;9.192;2023-10-09T14:27:25;24.20;99.90
7934;DHT22;4012;48.896;9.192;2023-10-09T14:29:53;24.20;99.90
7934;DHT22;4012;48.896;9.192;2023-10-09T14:32:25;24.30;99.90
7934;DHT22;4012;48.896;9.192;2023-10-09T14:35:09;24.20;99.90
7934;DHT22;4012;48.896;9.192;2023-10-09T14:37:40;24.20;99.90
7934;DHT22;4012;48.896;9.192;2023-10-09T14:40:07;24.10;99.90
7934;DHT22;4012;48.896;9.192;2023-10-09T14:42:41;24.10;99.90
7934;DHT22;4012;48.896;9.192;2023-10-09T14:45:11;24.10;99.90
7934;DHT22;4012;48.896;9.192;2023-10-09T14:47:41;24.10;99.90
7934;DHT22;4012;48.896;9.192;2023-10-09T14:50:07;24.00;99.90
7934;DHT22;4012;48.896;9.192;2023-10-09T14:52:34;23.90;99.90
7934;DHT22;4012;48.896;9.192;2023-10-09T14:55:07;23.90;99.90
7934;DHT22;4012;48.896;9.192;2023-10-09T14:57:33;23.90;99.90
7934;DHT22;4012;48.896;9.192;2023-10-09T14:59:59;23.90;99.90
7934;DHT22;4012;48.896;9.192;2023-10-09T15:02:25;23.80;99.90
7934;DHT22;4012;48.896;9.192;2023-10-09T15:04:51;23.80;99.90
7934;DHT22;4012;48.896;9.192;2023-10-09T15:07:18;23.80;99.90
7934;DHT22;4012;48.896;9.192;2023-10-09T15:09:46;23.80;99.90
7934;DHT22;4012;48.896;9.192;2023-10-09T15:12:12;23.80;99.90
7934;DHT22;4012;48.896;9.192;2023-10-09T15:14:40;23.70;99.90
7934;DHT22;4012;48.896;9.192;2023-10-09T15:17:06;23.70;99.90
7934;DHT22;4012;48.896;9.192;2023-10-09T15:19:32;23.60;99.90
7934;DHT22;4012;48.896;9.192;2023-10-09T15:21:59;23.60;99.90
7934;DHT22;4012;48.896;9.192;2023-10-09T15:24:25;23.60;99.90
7934;DHT22;4012;48.896;9.192;2023-10-09T15:26:53;23.50;99.90
7934;DHT22;4012;48.896;9.192;2023-10-09T15:29:26;23.50;99.90
7934;DHT22;4012;48.896;9.192;2023-10-09T15:31:59;23.40;99.90
7934;DHT22;4012;48.896;9.192;2023-10-09T15:34:40;23.40;99.90
7934;DHT22;4012;48.896;9.192;2023-10-09T15:37:07;23.30;99.90
7934;DHT22;4012;48.896;9.192;2023-10-09T15:39:34;23.30;99.90
7934;DHT22;4012;48.896;9.192;2023-10-09T15:42:00;23.20;99.90
7934;DHT22;4012;48.896;9.192;2023-10-09T15:44:25;23.20;99.90
7934;DHT22;4012;48.896;9.192;2023-10-09T15:46:52;23.10;99.90
7934;DHT22;4012;48.896;9.192;2023-10-09T15:49:28;23.00;99.90
7934;DHT22;4012;48.896;9.192;2023-10-09T15:51:55;22.90;99.90
7934;DHT22;4012;48.896;9.192;2023-10-09T15:54:21;22.90;99.90
7934;DHT22;4012;48.896;9.192;2023-10-09T15:56:47;22.80;99.90
7934;DHT22;4012;48.896;9.192;2023-10-09T15:59:12;22.80;99.90
7934;DHT22;4012;48.896;9.192;2023-10-09T16:01:38;22.70;99.90
7934;DHT22;4012;48.896;9.192;2023-10-09T16:04:08;22.70;99.90
7934;DHT22;4012;48.896;9.192;2023-10-09T16:06:36;22.60;99.90
7934;DHT22;4012;48.896;9.192;2023-10-09T16:09:05;22.60;99.90
7934;DHT22;4012;48.896;9.192;2023-10-09T16:11:31;22.40;99.90
7934;DHT22;4012;48.896;9.192;2023-10-09T16:14:00;22.30;99.90
7934;DHT22;4012;48.896;9.192;2023-10-09T16:16:29;22.20;99.90
7934;DHT22;4012;48.896;9.192;2023-10-09T16:18:56;22.10;99.90
7934;DHT22;4012;48.896;9.192;2023-10-09T16:21:25;22.00;99.90
7934;DHT22;4012;48.896;9.192;2023-10-09T16:23:53;22.00;99.90
7934;DHT22;4012;48.896;9.192;2023-10-09T16:26:19;21.90;99.90
7934;DHT22;4012;48.896;9.192;2023-10-09T16:28:50;21.80;99.90
7934;DHT22;4012;48.896;9.192;2023-10-09T16:31:17;21.70;99.90
7934;DHT22;4012;48.896;9.192;2023-10-09T16:33:44;21.60;99.90
7934;DHT22;4012;48.896;9.192;2023-10-09T16:36:10;21.60;99.90
7934;DHT22;4012;48.896;9.192;2023-10-09T16:38:36;21.50;99.90
7934;DHT22;4012;48.896;9.192;2023-10-09T16:41:05;21.50;99.90
7934;DHT22;4012;48.896;9.192;2023-10-09T16:43:34;21.50;99.90
7934;DHT22;4012;48.896;9.192;2023-10-09T16:46:03;21.50;99.90
7934;DHT22;4012;48.896;9.192;2023-10-09T16:48:34;21.40;99.90
7934;DHT22;4012;48.896;9.192;2023-10-09T16:51:03;21.30;99.90
7934;DHT22;4012;48.896;9.192;2023-10-09T16:53:31;21.30;99.90
7934;DHT22;4012;48.896;9.192;2023-10-09T16:56:05;21.20;99.90
7934;DHT22;4012;48.896;9.192;2023-10-09T17:01:05;21.10;99.90
7934;DHT22;4012;48.896;9.192;2023-10-09T17:03:39;21.00;99.90
7934;DHT22;4012;48.896;9.192;2023-10-09T17:06:09;21.00;99.90